createdAt,value
2018-10-01T00:02:02.925Z,2.22
2018-10-01T00:04:38.588Z,2.00
2018-10-01T00:07:14.586Z,1.52
2018-10-01T00:09:50.761Z,1.60
2018-10-01T00:12:26.774Z,1.30
2018-10-01T00:15:02.386Z,1.60
2018-10-01T00:17:38.369Z,1.10
2018-10-01T00:20:18.445Z,1.30
2018-10-01T00:22:55.274Z,2.15
2018-10-01T00:25:31.414Z,1.15
2018-10-01T00:28:07.385Z,1.60
2018-10-01T00:30:43.956Z,1.83
2018-10-01T00:33:20.029Z,1.35
2018-10-01T00:35:56.379Z,1.40
2018-10-01T00:38:32.647Z,1.70
2018-10-01T00:41:08.598Z,1.30
2018-10-01T00:43:44.793Z,1.98
2018-10-01T00:48:54.947Z,1.20
2018-10-01T00:51:30.602Z,1.00
2018-10-01T00:54:06.595Z,1.77
2018-10-01T00:56:42.609Z,1.17
2018-10-01T01:02:13.733Z,1.20
2018-10-01T01:04:49.791Z,1.10
2018-10-01T01:07:25.793Z,1.60
2018-10-01T01:10:01.783Z,1.37
2018-10-01T01:12:37.795Z,1.57
2018-10-01T01:15:13.820Z,1.50
2018-10-01T01:17:49.786Z,1.50
2018-10-01T01:20:27.953Z,4.53
2018-10-01T01:23:03.973Z,1.40
2018-10-01T01:25:40.271Z,2.30
2018-10-01T01:28:16.610Z,1.27
2018-10-01T01:30:52.837Z,1.05
2018-10-01T01:33:28.785Z,1.30
2018-10-01T01:36:04.598Z,1.97
2018-10-01T01:38:39.997Z,1.55
2018-10-01T01:41:15.590Z,3.10
2018-10-01T01:43:51.066Z,2.10
2018-10-01T01:46:26.648Z,1.77
2018-10-01T01:49:02.382Z,2.70
2018-10-01T01:54:11.594Z,2.10
2018-10-01T01:56:46.835Z,3.57
2018-10-01T01:59:22.250Z,3.10
2018-10-01T02:01:57.630Z,2.23
2018-10-01T02:04:32.995Z,2.93
2018-10-01T02:07:08.601Z,3.37
2018-10-01T02:09:44.399Z,3.65
2018-10-01T02:12:19.836Z,4.40
2018-10-01T02:14:55.342Z,3.30
2018-10-01T02:17:30.810Z,4.20
2018-10-01T02:20:06.273Z,2.20
2018-10-01T02:22:41.806Z,2.10
2018-10-01T02:25:17.543Z,3.93
2018-10-01T02:27:53.505Z,3.00
2018-10-01T02:30:29.011Z,2.93
2018-10-01T02:33:04.614Z,2.83
2018-10-01T02:35:40.329Z,4.03
2018-10-01T02:38:15.985Z,4.50
2018-10-01T02:40:51.641Z,3.80
2018-10-01T02:43:27.342Z,2.43
2018-10-01T02:46:03.923Z,4.17
2018-10-01T02:48:39.690Z,4.70
2018-10-01T02:51:15.010Z,3.30
2018-10-01T02:53:54.775Z,4.45
2018-10-01T02:56:30.025Z,3.43
2018-10-01T02:59:05.543Z,4.17
2018-10-01T03:01:41.001Z,3.70
2018-10-01T03:04:16.650Z,4.42
2018-10-01T03:06:52.282Z,4.93
2018-10-01T03:09:27.831Z,2.75
2018-10-01T03:12:03.276Z,4.43
2018-10-01T03:14:38.863Z,5.08
2018-10-01T03:17:14.292Z,3.27
2018-10-01T03:19:49.682Z,3.17
2018-10-01T03:22:25.422Z,3.37
2018-10-01T03:25:01.051Z,3.60
2018-10-01T03:27:36.349Z,3.57
2018-10-01T03:30:12.069Z,3.20
2018-10-01T03:32:47.650Z,4.55
2018-10-01T03:35:22.867Z,3.63
2018-10-01T03:37:59.677Z,3.90
2018-10-01T03:40:35.668Z,1.50
2018-10-01T03:43:11.060Z,2.23
2018-10-01T03:45:46.848Z,1.82
2018-10-01T03:48:22.367Z,1.83
2018-10-01T03:50:57.853Z,0.80
2018-10-01T03:53:35.542Z,1.53
2018-10-01T03:56:11.046Z,1.17
2018-10-01T03:58:46.888Z,1.57
2018-10-01T04:01:25.354Z,1.30
2018-10-01T04:04:01.038Z,0.70
2018-10-01T04:06:36.871Z,1.43
2018-10-01T04:09:13.451Z,1.33
2018-10-01T04:11:49.858Z,0.53
2018-10-01T04:14:25.873Z,0.50
2018-10-01T04:17:02.021Z,0.60
2018-10-01T04:19:38.046Z,0.93
2018-10-01T04:22:13.684Z,1.17
2018-10-01T04:24:49.473Z,0.93
2018-10-01T04:27:26.682Z,0.53
2018-10-01T04:30:04.166Z,0.53
2018-10-01T04:32:40.462Z,0.60
2018-10-01T04:35:16.649Z,0.53
2018-10-01T04:37:52.861Z,0.50
2018-10-01T04:40:29.488Z,0.90
2018-10-01T04:43:05.607Z,0.50
2018-10-01T04:45:41.691Z,0.62
2018-10-01T04:48:18.522Z,0.65
2018-10-01T04:50:54.511Z,1.20
2018-10-01T04:53:30.826Z,0.57
2018-10-01T04:56:07.958Z,0.57
2018-10-01T04:58:43.869Z,0.60
2018-10-01T05:01:19.879Z,0.60
2018-10-01T05:03:55.872Z,0.80
2018-10-01T05:06:31.707Z,0.60
2018-10-01T05:09:07.889Z,0.60
2018-10-01T05:11:44.403Z,0.60
2018-10-01T05:14:20.374Z,2.05
2018-10-01T05:16:56.540Z,0.40
2018-10-01T05:19:32.548Z,0.50
2018-10-01T05:22:08.482Z,0.50
2018-10-01T05:24:44.541Z,1.00
2018-10-01T05:27:20.915Z,0.50
2018-10-01T05:29:57.570Z,0.50
2018-10-01T05:32:33.522Z,0.62
2018-10-01T05:35:09.553Z,0.40
2018-10-01T05:37:45.760Z,0.55
2018-10-01T05:40:21.700Z,0.60
2018-10-01T05:42:57.723Z,0.40
2018-10-01T05:45:33.759Z,0.40
2018-10-01T05:48:09.763Z,1.17
2018-10-01T05:50:45.739Z,0.70
2018-10-01T05:53:21.786Z,0.77
2018-10-01T05:55:58.078Z,0.72
2018-10-01T05:58:34.445Z,1.32
2018-10-01T06:01:10.453Z,0.70
2018-10-01T06:03:46.881Z,0.60
2018-10-01T06:06:22.897Z,0.50
2018-10-01T06:11:46.895Z,0.63
2018-10-01T06:14:23.284Z,0.70
2018-10-01T06:16:59.731Z,0.72
2018-10-01T06:19:35.705Z,0.50
2018-10-01T06:22:12.947Z,0.70
2018-10-01T06:24:48.921Z,0.50
2018-10-01T06:27:25.110Z,0.50
2018-10-01T06:30:01.404Z,0.50
2018-10-01T06:32:37.749Z,1.52
2018-10-01T06:35:13.726Z,0.65
2018-10-01T06:37:49.876Z,1.82
2018-10-01T06:40:26.394Z,2.20
2018-10-01T06:43:02.585Z,2.85
2018-10-01T06:45:41.115Z,2.98
2018-10-01T06:48:17.662Z,3.13
2018-10-01T06:50:54.145Z,3.90
2018-10-01T06:53:30.550Z,2.70
2018-10-01T06:56:06.579Z,2.25
2018-10-01T06:58:43.973Z,3.33
2018-10-01T07:01:20.082Z,5.65
2018-10-01T07:03:56.532Z,4.37
2018-10-01T07:06:33.762Z,3.67
2018-10-01T07:09:13.525Z,4.10
2018-10-01T07:11:50.153Z,2.52
2018-10-01T07:14:26.638Z,3.58
2018-10-01T07:17:02.607Z,3.60
2018-10-01T07:19:38.574Z,3.45
2018-10-01T07:22:14.776Z,4.63
2018-10-01T07:24:51.107Z,3.45
2018-10-01T07:27:26.976Z,3.73
2018-10-01T07:30:02.760Z,3.80
2018-10-01T07:32:39.435Z,3.52
2018-10-01T07:35:15.940Z,3.85
2018-10-01T07:37:51.789Z,4.00
2018-10-01T07:40:27.805Z,4.00
2018-10-01T07:43:03.749Z,4.30
2018-10-01T07:45:39.761Z,2.75
2018-10-01T07:48:15.679Z,5.47
2018-10-01T07:50:51.833Z,3.60
2018-10-01T07:53:28.089Z,3.00
2018-10-01T07:56:04.448Z,4.00
2018-10-01T07:58:40.676Z,5.40
2018-10-01T08:01:16.636Z,4.10
2018-10-01T08:03:52.537Z,5.80
2018-10-01T08:06:28.598Z,4.50
2018-10-01T08:09:05.273Z,4.53
2018-10-01T08:11:41.969Z,3.95
2018-10-01T08:14:17.774Z,4.60
2018-10-01T08:16:53.770Z,4.27
2018-10-01T08:19:29.774Z,5.55
2018-10-01T08:22:06.578Z,4.47
2018-10-01T08:24:42.600Z,7.55
2018-10-01T08:27:18.777Z,6.22
2018-10-01T08:29:54.976Z,6.63
2018-10-01T08:32:31.516Z,7.33
2018-10-01T08:35:07.518Z,5.80
2018-10-01T08:37:43.966Z,6.92
2018-10-01T08:40:19.957Z,8.63
2018-10-01T08:42:56.145Z,8.60
2018-10-01T08:45:31.957Z,6.30
2018-10-01T08:48:08.954Z,6.37
2018-10-01T08:50:53.289Z,5.00
2018-10-01T08:53:32.828Z,5.90
2018-10-01T08:56:09.008Z,6.53
2018-10-01T08:58:44.966Z,5.05
2018-10-01T09:01:21.839Z,4.33
2018-10-01T09:03:57.629Z,4.20
2018-10-01T09:06:33.681Z,8.05
2018-10-01T09:09:13.166Z,5.20
2018-10-01T09:11:49.149Z,4.00
2018-10-01T09:14:25.556Z,6.03
2018-10-01T09:17:01.549Z,5.60
2018-10-01T09:19:37.589Z,4.40
2018-10-01T09:22:13.550Z,5.50
2018-10-01T09:24:49.616Z,5.90
2018-10-01T09:27:25.561Z,6.20
2018-10-01T09:30:01.411Z,5.45
2018-10-01T09:32:37.165Z,3.70
2018-10-01T09:35:13.079Z,8.27
2018-10-01T09:37:49.173Z,5.78
2018-10-01T09:40:25.809Z,5.67
2018-10-01T09:43:02.174Z,5.60
2018-10-01T09:45:38.789Z,5.10
2018-10-01T09:48:15.026Z,4.65
2018-10-01T09:50:51.784Z,3.83
2018-10-01T09:53:27.827Z,8.80
2018-10-01T09:56:04.208Z,6.20
2018-10-01T09:58:40.245Z,3.90
2018-10-01T10:01:17.996Z,6.30
2018-10-01T10:03:54.045Z,5.40
2018-10-01T10:06:29.985Z,3.87
2018-10-01T10:09:07.029Z,5.22
2018-10-01T10:11:43.810Z,5.65
2018-10-01T10:14:19.674Z,6.12
2018-10-01T10:16:55.957Z,5.33
2018-10-01T10:19:31.993Z,6.40
2018-10-01T10:22:07.887Z,4.77
2018-10-01T10:24:43.998Z,4.35
2018-10-01T10:27:20.467Z,6.13
2018-10-01T10:29:56.819Z,4.80
2018-10-01T10:32:32.815Z,5.30
2018-10-01T10:35:08.842Z,4.93
2018-10-01T10:37:45.017Z,4.00
2018-10-01T10:40:20.833Z,5.70
2018-10-01T10:42:56.832Z,5.90
2018-10-01T10:45:33.032Z,7.17
2018-10-01T10:48:08.931Z,6.58
2018-10-01T10:50:45.036Z,4.90
2018-10-01T10:53:20.848Z,6.03
2018-10-01T10:55:57.044Z,4.72
2018-10-01T10:58:33.225Z,6.22
2018-10-01T11:01:09.005Z,5.57
2018-10-01T11:03:45.005Z,5.20
2018-10-01T11:06:20.894Z,4.07
2018-10-01T11:08:56.965Z,5.12
2018-10-01T11:11:33.012Z,5.00
2018-10-01T11:14:08.885Z,5.10
2018-10-01T11:16:44.841Z,4.07
2018-10-01T11:19:21.086Z,4.28
2018-10-01T11:21:57.305Z,4.60
2018-10-01T11:24:33.705Z,4.87
2018-10-01T11:27:09.870Z,5.90
2018-10-01T11:29:45.849Z,3.90
2018-10-01T11:32:22.038Z,4.80
2018-10-01T11:34:57.992Z,6.33
2018-10-01T11:37:34.020Z,5.43
2018-10-01T11:40:09.848Z,4.05
2018-10-01T11:42:45.841Z,6.37
2018-10-01T11:45:22.204Z,4.08
2018-10-01T11:47:58.665Z,3.92
2018-10-01T11:50:34.984Z,3.93
2018-10-01T11:53:10.764Z,4.60
2018-10-01T11:55:47.664Z,6.40
2018-10-01T11:58:23.777Z,3.98
2018-10-01T12:01:00.621Z,4.45
2018-10-01T12:03:36.748Z,3.33
2018-10-01T12:06:12.723Z,4.55
2018-10-01T12:08:49.036Z,4.20
2018-10-01T12:11:27.462Z,4.97
2018-10-01T12:14:03.861Z,6.60
2018-10-01T12:16:39.879Z,5.92
2018-10-01T12:19:20.701Z,4.08
2018-10-01T12:22:01.843Z,4.23
2018-10-01T12:24:43.531Z,3.50
2018-10-01T12:27:20.867Z,6.47
2018-10-01T12:29:58.849Z,4.58
2018-10-01T12:32:35.217Z,4.73
2018-10-01T12:35:11.482Z,4.50
2018-10-01T12:37:47.700Z,3.73
2018-10-01T12:40:23.853Z,4.60
2018-10-01T12:42:59.921Z,4.75
2018-10-01T12:45:36.262Z,7.10
2018-10-01T12:48:12.047Z,3.70
2018-10-01T12:53:46.255Z,3.73
2018-10-01T12:56:22.650Z,5.83
2018-10-01T12:58:58.713Z,3.75
2018-10-01T13:01:34.799Z,4.77
2018-10-01T13:04:10.829Z,5.83
2018-10-01T13:06:46.902Z,4.33
2018-10-01T13:09:23.047Z,3.83
2018-10-01T13:11:58.832Z,5.37
2018-10-01T13:14:34.822Z,3.33
2018-10-01T13:17:10.834Z,5.20
2018-10-01T13:19:47.798Z,6.03
2018-10-01T13:22:24.107Z,4.20
2018-10-01T13:25:00.136Z,4.10
2018-10-01T13:27:36.670Z,4.25
2018-10-01T13:30:12.923Z,5.45
2018-10-01T13:32:48.889Z,4.35
2018-10-01T13:35:24.878Z,3.62
2018-10-01T13:38:00.980Z,5.80
2018-10-01T13:40:36.897Z,5.40
2018-10-01T13:43:12.719Z,4.75
2018-10-01T13:45:48.870Z,4.87
2018-10-01T13:48:25.703Z,3.90
2018-10-01T13:51:02.077Z,4.57
2018-10-01T13:53:38.082Z,4.15
2018-10-01T13:56:14.649Z,4.70
2018-10-01T14:05:48.061Z,3.93
2018-10-01T14:08:24.457Z,3.50
2018-10-01T14:11:00.719Z,3.80
2018-10-01T14:13:36.943Z,3.50
2018-10-01T14:16:13.277Z,4.35
2018-10-01T14:18:49.278Z,3.67
2018-10-01T14:21:25.686Z,4.90
2018-10-01T14:24:02.681Z,4.05
2018-10-01T14:26:38.910Z,4.15
2018-10-01T14:29:14.906Z,4.15
2018-10-01T14:31:51.092Z,5.00
2018-10-01T14:34:27.250Z,3.80
2018-10-01T14:37:07.625Z,3.63
2018-10-01T14:39:43.650Z,4.70
2018-10-01T14:42:20.622Z,4.60
2018-10-01T14:44:56.661Z,5.30
2018-10-01T14:47:33.907Z,6.50
2018-10-01T14:50:10.197Z,5.40
2018-10-01T14:52:46.203Z,6.47
2018-10-01T14:55:22.309Z,9.10
2018-10-01T14:58:00.618Z,8.25
2018-10-01T15:00:36.838Z,7.90
2018-10-01T15:03:12.727Z,6.47
2018-10-01T15:05:48.676Z,6.70
2018-10-01T15:08:24.941Z,7.15
2018-10-01T15:11:01.184Z,6.25
2018-10-01T15:13:38.158Z,9.33
2018-10-01T15:16:14.156Z,8.70
2018-10-01T15:18:49.970Z,4.87
2018-10-01T15:21:26.103Z,7.13
2018-10-01T15:24:02.148Z,8.80
2018-10-01T15:26:38.110Z,5.63
2018-10-01T15:29:14.124Z,8.33
2018-10-01T15:31:50.110Z,7.10
2018-10-01T15:34:25.971Z,9.90
2018-10-01T15:37:01.687Z,5.87
2018-10-01T15:39:37.698Z,5.87
2018-10-01T15:42:14.202Z,7.93
2018-10-01T15:44:50.586Z,8.60
2018-10-01T15:47:26.581Z,5.83
2018-10-01T15:50:02.624Z,8.27
2018-10-01T15:52:38.760Z,5.10
2018-10-01T15:55:14.753Z,5.63
2018-10-01T15:57:50.748Z,5.43
2018-10-01T16:00:26.946Z,6.87
2018-10-01T16:03:03.117Z,8.23
2018-10-01T16:05:38.946Z,6.53
2018-10-01T16:08:14.562Z,5.72
2018-10-01T16:10:50.122Z,5.27
2018-10-01T16:13:25.712Z,4.60
2018-10-01T16:16:01.318Z,8.23
2018-10-01T16:18:36.973Z,6.97
2018-10-01T16:21:13.781Z,7.80
2018-10-01T16:23:54.082Z,5.55
2018-10-01T16:26:29.694Z,6.53
2018-10-01T16:29:05.747Z,8.30
2018-10-01T16:31:41.354Z,7.58
2018-10-01T16:34:17.303Z,4.97
2018-10-01T16:36:52.928Z,4.70
2018-10-01T16:39:28.674Z,7.83
2018-10-01T16:42:03.962Z,7.00
2018-10-01T16:44:40.322Z,6.17
2018-10-01T16:47:15.841Z,4.90
2018-10-01T16:49:51.619Z,7.57
2018-10-01T16:52:27.146Z,6.72
2018-10-01T16:55:02.796Z,10.57
2018-10-01T16:57:38.359Z,5.97
2018-10-01T17:00:18.329Z,6.92
2018-10-01T17:02:53.880Z,6.25
2018-10-01T17:05:29.704Z,6.57
2018-10-01T17:08:05.131Z,6.00
2018-10-01T17:10:40.593Z,6.20
2018-10-01T17:13:16.045Z,4.90
2018-10-01T17:15:51.597Z,5.63
2018-10-01T17:19:31.211Z,6.40
2018-10-01T17:22:06.969Z,7.55
2018-10-01T17:24:42.568Z,6.42
2018-10-01T17:27:18.154Z,5.57
2018-10-01T17:29:54.741Z,8.23
2018-10-01T17:32:30.721Z,6.17
2018-10-01T17:35:06.965Z,7.22
2018-10-01T17:37:42.993Z,7.97
2018-10-01T17:40:18.675Z,7.05
2018-10-01T17:42:54.354Z,7.67
2018-10-01T17:45:29.977Z,6.70
2018-10-01T17:48:05.889Z,7.63
2018-10-01T17:50:42.981Z,4.87
2018-10-01T17:53:18.652Z,5.65
2018-10-01T17:55:56.718Z,4.87
2018-10-01T17:58:32.371Z,5.92
2018-10-01T18:01:07.738Z,6.03
2018-10-01T18:03:43.691Z,5.30
2018-10-01T18:06:19.658Z,4.65
2018-10-01T18:08:55.385Z,4.45
2018-10-01T18:11:30.967Z,7.10
2018-10-01T18:14:06.577Z,5.30
2018-10-01T18:16:42.117Z,6.60
2018-10-01T18:19:17.381Z,6.47
2018-10-01T18:21:52.821Z,5.63
2018-10-01T18:24:28.625Z,5.57
2018-10-01T18:27:03.994Z,6.75
2018-10-01T18:29:39.175Z,5.30
2018-10-01T18:32:14.822Z,5.50
2018-10-01T18:34:50.193Z,6.10
2018-10-01T18:37:25.780Z,6.50
2018-10-01T18:40:01.657Z,4.62
2018-10-01T18:42:37.345Z,6.17
2018-10-01T18:45:19.010Z,6.85
2018-10-01T18:47:54.696Z,4.33
2018-10-01T18:50:30.482Z,4.15
2018-10-01T18:53:06.391Z,6.27
2018-10-01T18:55:42.473Z,5.63
2018-10-01T18:58:18.194Z,6.55
2018-10-01T19:00:53.819Z,7.90
2018-10-01T19:03:30.063Z,5.80
2018-10-01T19:06:05.448Z,5.43
2018-10-01T19:08:40.851Z,4.50
2018-10-01T19:11:16.839Z,6.05
2018-10-01T19:13:52.507Z,4.63
2018-10-01T19:16:28.019Z,6.50
2018-10-01T19:19:03.750Z,7.70
2018-10-01T19:21:39.425Z,5.83
2018-10-01T19:24:14.843Z,7.40
2018-10-01T19:33:46.009Z,5.90
2018-10-01T19:36:21.648Z,6.43
2018-10-01T19:38:57.288Z,8.75
2018-10-01T19:41:33.249Z,6.92
2018-10-01T19:44:08.841Z,6.87
2018-10-01T19:46:44.684Z,5.53
2018-10-01T19:49:20.212Z,7.60
2018-10-01T19:51:56.207Z,9.85
2018-10-01T19:54:31.776Z,8.83
2018-10-01T19:57:07.044Z,7.20
2018-10-01T19:59:42.796Z,9.37
2018-10-01T20:02:18.609Z,7.87
2018-10-01T20:04:53.980Z,7.53
2018-10-01T20:07:29.585Z,10.85
2018-10-01T20:10:05.245Z,9.90
2018-10-01T20:12:40.653Z,9.60
2018-10-01T20:15:16.274Z,11.60
2018-10-01T20:17:52.033Z,9.33
2018-10-01T20:20:27.461Z,8.53
2018-10-01T20:23:03.021Z,9.10
2018-10-01T20:25:38.872Z,8.33
2018-10-01T20:28:14.621Z,9.20
2018-10-01T20:33:24.037Z,7.72
2018-10-01T20:35:59.859Z,9.20
2018-10-01T20:38:35.291Z,7.53
2018-10-01T20:41:10.833Z,10.60
2018-10-01T20:43:46.792Z,11.53
2018-10-01T20:46:22.345Z,7.57
2018-10-01T20:48:57.892Z,8.80
2018-10-01T20:51:33.217Z,9.93
2018-10-01T20:54:08.879Z,9.97
2018-10-01T20:59:40.038Z,11.63
2018-10-01T21:02:15.435Z,10.43
2018-10-01T21:04:51.055Z,11.15
2018-10-01T21:07:26.235Z,10.10
2018-10-01T21:10:02.053Z,12.28
2018-10-01T21:12:38.270Z,7.83
2018-10-01T21:15:14.232Z,7.40
2018-10-01T21:17:50.241Z,8.13
2018-10-01T21:20:25.809Z,9.70
2018-10-01T21:23:01.242Z,7.70
2018-10-01T21:25:36.886Z,7.92
2018-10-01T21:28:13.259Z,7.70
2018-10-01T21:30:48.904Z,10.27
2018-10-01T21:33:24.240Z,9.87
2018-10-01T21:35:59.792Z,9.37
2018-10-01T21:38:35.234Z,7.50
2018-10-01T21:41:11.078Z,6.95
2018-10-01T21:43:46.689Z,8.50
2018-10-01T21:46:22.347Z,9.40
2018-10-01T21:48:57.933Z,9.13
2018-10-01T21:51:33.693Z,8.63
2018-10-01T21:54:09.402Z,6.15
2018-10-01T21:56:44.842Z,8.03
2018-10-01T21:59:20.661Z,5.77
2018-10-01T22:04:33.255Z,5.17
2018-10-01T22:07:08.906Z,8.20
2018-10-01T22:09:44.877Z,7.20
2018-10-01T22:12:20.464Z,9.70
2018-10-01T22:14:56.082Z,7.47
2018-10-01T22:17:31.473Z,7.73
2018-10-01T22:20:07.090Z,6.77
2018-10-01T22:22:42.654Z,7.50
2018-10-01T22:25:18.253Z,6.53
2018-10-01T22:27:53.965Z,8.77
2018-10-01T22:30:29.485Z,7.87
2018-10-01T22:33:05.079Z,7.05
2018-10-01T22:35:40.369Z,8.70
2018-10-01T22:38:16.271Z,10.43
2018-10-01T22:40:51.778Z,11.23
2018-10-01T22:43:27.269Z,8.50
2018-10-01T22:46:02.499Z,7.93
2018-10-01T22:48:38.212Z,9.70
2018-10-01T22:51:13.781Z,6.77
2018-10-01T22:53:49.090Z,7.90
2018-10-01T22:56:24.700Z,7.55
2018-10-01T22:59:00.229Z,10.00
2018-10-01T23:01:36.105Z,10.18
2018-10-01T23:04:12.040Z,9.30
2018-10-01T23:06:48.009Z,8.20
2018-10-01T23:09:23.575Z,9.58
2018-10-01T23:11:59.275Z,5.67
2018-10-01T23:14:34.843Z,8.90
2018-10-01T23:17:10.502Z,6.42
2018-10-01T23:22:07.736Z,6.85
2018-10-01T23:24:44.061Z,8.38
2018-10-01T23:27:19.837Z,7.40
2018-10-01T23:29:55.310Z,7.23
2018-10-01T23:35:19.171Z,7.73
2018-10-01T23:37:55.645Z,8.40
2018-10-01T23:40:31.114Z,5.83
2018-10-01T23:43:06.494Z,6.57
2018-10-01T23:45:41.989Z,4.63
2018-10-01T23:48:18.109Z,4.87
2018-10-01T23:50:53.301Z,5.97
2018-10-01T23:53:28.778Z,8.75
2018-10-01T23:56:04.393Z,7.55
2018-10-01T23:58:40.097Z,7.75
